Terminal Aerodrome Forecast
Issued by NWS

Home | Current Version | Previous Version | Text Only | Print | Product List | Glossary On
Versions: 1 2 3 4 5 6 7 8 9 10 11 12 13 14 15 16 17 18 19 20 21 22 23 24 25 26 27 28 29
000
FTUS42 KCAE 220800 AAB
TAFOGB
TAF AMD
KOGB 220843Z 2209/2306 04005KT 5SM -RA BR OVC006
     FM221300 04006KT 4SM -DZ BR OVC007
     FM221800 04005KT 3SM -DZ BR OVC006
     FM230200 07003KT 2SM BR OVC003=

USA.gov is the U.S. government's official web portal to all federal, state and local government web resources and services.